Time;durP1;ratioP1;P1;durP2;ratioP2;P2;SDS_P1;SDS_P2;PMS_P1;PMS_P2;Temp;Humidity;BMP_temperature;BMP_pressure;BME280_temperature;BME280_humidity;BME280_pressure;Samples;Min_cycle;Max_cycle;Signal;HPM_P1;HPM_P2
2022/06/01 00:00:21;;;;;;;2.40;1.10;;;;;;;-128.00;-1.00;-1.00;100137;1299;1003690;-28
2022/06/01 00:02:50;;;;;;;23.90;1.10;;;;;;;-128.00;-1.00;-1.00;100186;1299;1004215;-30
2022/06/01 00:05:20;;;;;;;4.20;1.30;;;;;;;-128.00;-1.00;-1.00;100175;1299;1004015;-24
2022/06/01 00:07:49;;;;;;;1.20;1.00;;;;;;;-128.00;-1.00;-1.00;100091;1299;1003489;-24
2022/06/01 00:10:18;;;;;;;1.40;0.50;;;;;;;-128.00;-1.00;-1.00;100208;1299;1004304;-24
2022/06/01 00:12:47;;;;;;;1.20;0.80;;;;;;;-128.00;-1.00;-1.00;100221;1299;1003544;-25
2022/06/01 00:15:19;;;;;;;3.00;0.70;;;;;;;-128.00;-1.00;-1.00;100182;1299;1003778;-25
2022/06/01 00:17:48;;;;;;;1.90;0.90;;;;;;;-128.00;-1.00;-1.00;100140;1299;1003819;-25
2022/06/01 00:20:18;;;;;;;0.70;0.60;;;;;;;-128.00;-1.00;-1.00;100203;1299;1004527;-24
2022/06/01 00:22:47;;;;;;;1.00;0.70;;;;;;;-128.00;-1.00;-1.00;100160;1299;1002945;-27
2022/06/01 00:25:16;;;;;;;4.20;1.30;;;;;;;-128.00;-1.00;-1.00;100165;1299;1004473;-30
2022/06/01 00:27:45;;;;;;;16.20;1.20;;;;;;;-128.00;-1.00;-1.00;100097;1298;1004673;-26
2022/06/01 00:30:15;;;;;;;1.10;0.90;;;;;;;-128.00;-1.00;-1.00;100197;1299;1003752;-31
2022/06/01 00:32:44;;;;;;;2.90;1.60;;;;;;;-128.00;-1.00;-1.00;100160;1299;1003422;-31
2022/06/01 00:35:14;;;;;;;2.10;1.10;;;;;;;-128.00;-1.00;-1.00;100206;1299;1004452;-30
2022/06/01 00:37:43;;;;;;;1.00;0.70;;;;;;;-128.00;-1.00;-1.00;100154;1299;1002826;-30
2022/06/01 00:40:13;;;;;;;1.70;1.20;;;;;;;-128.00;-1.00;-1.00;100080;1299;1004483;-30
2022/06/01 00:42:44;;;;;;;4.90;0.90;;;;;;;-128.00;-1.00;-1.00;100091;1299;1004503;-24
2022/06/01 00:45:16;;;;;;;0.70;0.50;;;;;;;-128.00;-1.00;-1.00;100193;1299;1003256;-32
2022/06/01 00:47:45;;;;;;;4.40;1.20;;;;;;;-128.00;-1.00;-1.00;100159;1299;1003951;-28
2022/06/01 00:50:17;;;;;;;3.00;0.70;;;;;;;-128.00;-1.00;-1.00;100096;1299;1003471;-26
2022/06/01 00:52:48;;;;;;;2.40;0.70;;;;;;;-128.00;-1.00;-1.00;100193;1299;1003986;-25
2022/06/01 00:55:21;;;;;;;3.40;1.30;;;;;;;-128.00;-1.00;-1.00;100175;1298;1003445;-30
2022/06/01 00:57:52;;;;;;;1.00;0.70;;;;;;;-128.00;-1.00;-1.00;100148;1299;1004047;-25
2022/06/01 01:00:24;;;;;;;1.40;0.70;;;;;;;-128.00;-1.00;-1.00;100171;1299;1004717;-27
2022/06/01 01:02:55;;;;;;;1.00;0.70;;;;;;;-128.00;-1.00;-1.00;100152;1299;1003239;-24
2022/06/01 01:05:24;;;;;;;1.40;0.70;;;;;;;-128.00;-1.00;-1.00;100244;1299;1003608;-25
2022/06/01 01:07:53;;;;;;;5.60;1.20;;;;;;;-128.00;-1.00;-1.00;100142;1299;1003179;-24
2022/06/01 01:10:22;;;;;;;1.20;0.50;;;;;;;-128.00;-1.00;-1.00;100177;1299;1003677;-30
2022/06/01 01:15:25;;;;;;;4.40;0.50;;;;;;;-128.00;-1.00;-1.00;100117;1299;1003761;-24
2022/06/01 01:17:54;;;;;;;1.40;0.90;;;;;;;-128.00;-1.00;-1.00;100049;1299;1003572;-30
2022/06/01 01:20:24;;;;;;;1.20;0.50;;;;;;;-128.00;-1.00;-1.00;100108;1299;1003820;-25
2022/06/01 01:22:59;;;;;;;0.90;0.60;;;;;;;-128.00;-1.00;-1.00;100213;1299;1003553;-32
2022/06/01 01:25:29;;;;;;;0.80;0.70;;;;;;;-128.00;-1.00;-1.00;100199;1299;1004355;-30
2022/06/01 01:28:00;;;;;;;0.80;0.70;;;;;;;-128.00;-1.00;-1.00;100158;1298;1003807;-32
2022/06/01 01:30:35;;;;;;;0.50;0.30;;;;;;;-128.00;-1.00;-1.00;100107;1299;1004192;-32
2022/06/01 01:33:08;;;;;;;2.30;0.60;;;;;;;-128.00;-1.00;-1.00;100074;1298;1003301;-29
2022/06/01 01:35:37;;;;;;;0.70;0.60;;;;;;;-128.00;-1.00;-1.00;100182;1299;1003223;-25
2022/06/01 01:38:09;;;;;;;0.70;0.40;;;;;;;-128.00;-1.00;-1.00;100213;1299;1004022;-24
2022/06/01 01:40:38;;;;;;;0.80;0.50;;;;;;;-128.00;-1.00;-1.00;100128;1299;1003285;-30
2022/06/01 01:43:07;;;;;;;1.00;0.70;;;;;;;-128.00;-1.00;-1.00;100138;1298;1004687;-29
2022/06/01 01:45:36;;;;;;;0.50;0.50;;;;;;;-128.00;-1.00;-1.00;100145;1299;1002852;-25
2022/06/01 01:48:06;;;;;;;0.60;0.40;;;;;;;-128.00;-1.00;-1.00;100206;1298;1003656;-26
2022/06/01 01:50:35;;;;;;;1.20;0.40;;;;;;;-128.00;-1.00;-1.00;100188;1299;1004307;-24
2022/06/01 01:53:04;;;;;;;1.60;1.50;;;;;;;-128.00;-1.00;-1.00;100233;1299;1003922;-30
2022/06/01 01:55:39;;;;;;;2.30;1.40;;;;;;;-128.00;-1.00;-1.00;100166;1299;1003433;-30
2022/06/01 01:58:15;;;;;;;1.70;0.80;;;;;;;-128.00;-1.00;-1.00;100125;1299;1004213;-30
2022/06/01 02:00:47;;;;;;;1.00;0.90;;;;;;;-128.00;-1.00;-1.00;100148;1299;1002898;-30
2022/06/01 02:03:23;;;;;;;1.30;0.90;;;;;;;-128.00;-1.00;-1.00;100106;1299;1003550;-25
2022/06/01 02:08:32;;;;;;;0.60;0.60;;;;;;;-128.00;-1.00;-1.00;100141;1299;1004111;-32
2022/06/01 02:13:55;;;;;;;1.60;1.20;;;;;;;-128.00;-1.00;-1.00;100152;1299;1004167;-25
2022/06/01 02:16:25;;;;;;;6.60;4.30;;;;;;;-128.00;-1.00;-1.00;100211;1299;1004506;-25
2022/06/01 02:18:57;;;;;;;6.60;3.70;;;;;;;-128.00;-1.00;-1.00;100186;1299;1003316;-30
2022/06/01 02:21:27;;;;;;;6.50;3.50;;;;;;;-128.00;-1.00;-1.00;100164;1299;1003848;-30
2022/06/01 02:23:59;;;;;;;4.30;3.70;;;;;;;-128.00;-1.00;-1.00;100154;1299;1003517;-25
2022/06/01 02:26:28;;;;;;;4.20;3.30;;;;;;;-128.00;-1.00;-1.00;99845;1299;1003726;-26
2022/06/01 02:29:02;;;;;;;4.90;3.80;;;;;;;-128.00;-1.00;-1.00;100166;1299;1004125;-26
2022/06/01 02:31:31;;;;;;;6.70;4.20;;;;;;;-128.00;-1.00;-1.00;100158;1299;1004433;-25
2022/06/01 02:34:03;;;;;;;4.30;3.20;;;;;;;-128.00;-1.00;-1.00;100196;1299;1003518;-30
2022/06/01 02:36:32;;;;;;;3.00;2.10;;;;;;;-128.00;-1.00;-1.00;100158;1299;1003578;-30
2022/06/01 02:39:02;;;;;;;3.90;2.20;;;;;;;-128.00;-1.00;-1.00;100140;1299;1003360;-32
2022/06/01 02:44:04;;;;;;;1.70;1.20;;;;;;;-128.00;-1.00;-1.00;100151;1299;1003676;-32
2022/06/01 02:46:33;;;;;;;1.80;0.90;;;;;;;-128.00;-1.00;-1.00;100195;1299;1004360;-29
2022/06/01 02:49:03;;;;;;;1.10;0.80;;;;;;;-128.00;-1.00;-1.00;100192;1299;1004160;-30
2022/06/01 02:51:32;;;;;;;6.40;1.70;;;;;;;-128.00;-1.00;-1.00;100172;1299;1003477;-25
2022/06/01 02:54:02;;;;;;;1.50;1.40;;;;;;;-128.00;-1.00;-1.00;99471;1299;1003856;-25
2022/06/01 02:56:31;;;;;;;2.80;1.30;;;;;;;-128.00;-1.00;-1.00;100188;1299;1003065;-30
2022/06/01 02:59:00;;;;;;;1.00;0.70;;;;;;;-128.00;-1.00;-1.00;100195;1299;1003983;-30
2022/06/01 03:01:29;;;;;;;1.70;1.40;;;;;;;-128.00;-1.00;-1.00;100151;1299;1004634;-28
2022/06/01 03:03:58;;;;;;;1.50;1.40;;;;;;;-128.00;-1.00;-1.00;100091;1302;1003638;-32
2022/06/01 03:06:27;;;;;;;7.50;5.90;;;;;;;-128.00;-1.00;-1.00;100195;1299;1003398;-32
2022/06/01 03:08:57;;;;;;;6.20;5.70;;;;;;;-128.00;-1.00;-1.00;100117;1299;1003617;-24
2022/06/01 03:11:26;;;;;;;4.20;3.90;;;;;;;-128.00;-1.00;-1.00;100172;1299;1003264;-25
2022/06/01 03:13:55;;;;;;;3.50;2.50;;;;;;;-128.00;-1.00;-1.00;100223;1299;1003844;-30
2022/06/01 03:16:24;;;;;;;2.80;2.30;;;;;;;-128.00;-1.00;-1.00;100161;1298;1004143;-30
2022/06/01 03:18:53;;;;;;;2.20;1.80;;;;;;;-128.00;-1.00;-1.00;100126;1299;1003381;-25
2022/06/01 03:21:22;;;;;;;2.30;1.60;;;;;;;-128.00;-1.00;-1.00;100201;1299;1004159;-30
2022/06/01 03:23:51;;;;;;;2.50;2.20;;;;;;;-128.00;-1.00;-1.00;100172;1299;1003764;-25
2022/06/01 03:26:20;;;;;;;2.90;1.90;;;;;;;-128.00;-1.00;-1.00;100108;1301;1004491;-30
2022/06/01 03:28:49;;;;;;;2.50;1.60;;;;;;;-128.00;-1.00;-1.00;100156;1299;1003755;-30
2022/06/01 03:31:18;;;;;;;3.30;2.10;;;;;;;-128.00;-1.00;-1.00;100146;1299;1004191;-29
2022/06/01 03:33:47;;;;;;;2.80;2.60;;;;;;;-128.00;-1.00;-1.00;100181;1299;1003749;-24
2022/06/01 03:36:16;;;;;;;2.10;1.90;;;;;;;-128.00;-1.00;-1.00;100189;1299;1004545;-30
2022/06/01 03:38:45;;;;;;;2.10;1.90;;;;;;;-128.00;-1.00;-1.00;100212;1299;1004478;-25
2022/06/01 03:41:14;;;;;;;1.70;1.50;;;;;;;-128.00;-1.00;-1.00;100197;1299;1004809;-30
2022/06/01 03:46:16;;;;;;;2.50;2.10;;;;;;;-128.00;-1.00;-1.00;100139;1299;1003476;-32
2022/06/01 03:48:44;;;;;;;2.50;1.70;;;;;;;-128.00;-1.00;-1.00;100131;1299;1004305;-30
2022/06/01 03:51:13;;;;;;;2.60;1.80;;;;;;;-128.00;-1.00;-1.00;100119;1299;1004724;-25
2022/06/01 03:53:42;;;;;;;2.10;1.50;;;;;;;-128.00;-1.00;-1.00;100142;1299;1004167;-30
2022/06/01 03:56:11;;;;;;;1.90;1.30;;;;;;;-128.00;-1.00;-1.00;100244;1299;1003410;-33
2022/06/01 03:58:40;;;;;;;4.10;2.30;;;;;;;-128.00;-1.00;-1.00;100133;1299;1004149;-31
2022/06/01 04:01:09;;;;;;;1.70;1.60;;;;;;;-128.00;-1.00;-1.00;100131;1299;1003570;-25
2022/06/01 04:03:38;;;;;;;3.10;2.40;;;;;;;-128.00;-1.00;-1.00;100158;1299;1004338;-24
2022/06/01 04:06:07;;;;;;;3.60;2.30;;;;;;;-128.00;-1.00;-1.00;100162;1299;1004141;-25
2022/06/01 04:08:36;;;;;;;2.50;2.10;;;;;;;-128.00;-1.00;-1.00;100219;1299;1003515;-25
2022/06/01 04:11:06;;;;;;;3.50;2.30;;;;;;;-128.00;-1.00;-1.00;100191;1299;1003187;-27
2022/06/01 04:13:36;;;;;;;1.80;1.30;;;;;;;-128.00;-1.00;-1.00;100171;1299;1004191;-25
2022/06/01 04:16:05;;;;;;;1.60;1.30;;;;;;;-128.00;-1.00;-1.00;99848;1299;1003521;-31
2022/06/01 04:18:34;;;;;;;1.70;1.30;;;;;;;-128.00;-1.00;-1.00;100149;1298;1003896;-26
2022/06/01 04:21:03;;;;;;;2.30;1.50;;;;;;;-128.00;-1.00;-1.00;100069;1299;1003373;-30
2022/06/01 04:23:33;;;;;;;1.60;1.10;;;;;;;-128.00;-1.00;-1.00;100179;1299;1003481;-30
2022/06/01 04:26:02;;;;;;;5.10;1.40;;;;;;;-128.00;-1.00;-1.00;100163;1299;1003858;-25
2022/06/01 04:28:31;;;;;;;2.80;1.60;;;;;;;-128.00;-1.00;-1.00;100158;1299;1003803;-30
2022/06/01 04:31:00;;;;;;;1.50;1.10;;;;;;;-128.00;-1.00;-1.00;100126;1299;1003786;-28
2022/06/01 04:33:29;;;;;;;6.10;1.10;;;;;;;-128.00;-1.00;-1.00;100243;1299;1004653;-30
2022/06/01 04:35:58;;;;;;;1.00;0.80;;;;;;;-128.00;-1.00;-1.00;100190;1299;1003944;-32
2022/06/01 04:38:27;;;;;;;3.30;1.10;;;;;;;-128.00;-1.00;-1.00;100198;1299;1003929;-25
2022/06/01 04:40:56;;;;;;;1.60;1.00;;;;;;;-128.00;-1.00;-1.00;100245;1299;1002990;-30
2022/06/01 04:43:25;;;;;;;1.10;0.70;;;;;;;-128.00;-1.00;-1.00;100178;1299;1004348;-30
2022/06/01 04:45:54;;;;;;;1.30;0.90;;;;;;;-128.00;-1.00;-1.00;100176;1299;1004974;-25
2022/06/01 04:48:24;;;;;;;8.00;0.60;;;;;;;-128.00;-1.00;-1.00;100177;1299;1004138;-24
2022/06/01 04:50:53;;;;;;;1.10;0.80;;;;;;;-128.00;-1.00;-1.00;100186;1299;1003262;-25
2022/06/01 04:53:22;;;;;;;1.50;1.00;;;;;;;-128.00;-1.00;-1.00;100137;1299;1003384;-29
2022/06/01 04:55:51;;;;;;;1.10;0.90;;;;;;;-128.00;-1.00;-1.00;100172;1299;1002838;-25
2022/06/01 04:58:22;;;;;;;1.00;0.60;;;;;;;-128.00;-1.00;-1.00;100195;1299;1003923;-29
2022/06/01 05:00:51;;;;;;;1.50;0.80;;;;;;;-128.00;-1.00;-1.00;100174;1299;1003214;-30
2022/06/01 05:03:19;;;;;;;1.40;1.00;;;;;;;-128.00;-1.00;-1.00;100174;1299;1003808;-29
2022/06/01 05:05:48;;;;;;;0.80;0.50;;;;;;;-128.00;-1.00;-1.00;100140;1299;1003771;-26
2022/06/01 05:08:17;;;;;;;1.80;0.60;;;;;;;-128.00;-1.00;-1.00;100247;1299;1004102;-26
2022/06/01 05:10:46;;;;;;;1.40;0.70;;;;;;;-128.00;-1.00;-1.00;100055;1299;1003666;-30
2022/06/01 05:13:17;;;;;;;1.30;0.70;;;;;;;-128.00;-1.00;-1.00;100132;1299;1003809;-30
2022/06/01 05:15:48;;;;;;;1.90;1.10;;;;;;;-128.00;-1.00;-1.00;100180;1298;1003203;-31
2022/06/01 05:18:17;;;;;;;0.60;0.60;;;;;;;-128.00;-1.00;-1.00;100092;1300;1003987;-24
2022/06/01 05:20:46;;;;;;;1.00;0.70;;;;;;;-128.00;-1.00;-1.00;100172;1299;1003786;-24
2022/06/01 05:23:17;;;;;;;1.50;0.80;;;;;;;-128.00;-1.00;-1.00;100172;1298;1003033;-29
2022/06/01 05:25:48;;;;;;;1.00;0.90;;;;;;;-128.00;-1.00;-1.00;100144;1297;1002818;-29
2022/06/01 05:28:19;;;;;;;1.00;0.70;;;;;;;-128.00;-1.00;-1.00;100143;1299;1003549;-24
2022/06/01 05:30:48;;;;;;;0.90;0.80;;;;;;;-128.00;-1.00;-1.00;100201;1299;1003741;-31
2022/06/01 05:33:17;;;;;;;1.30;0.60;;;;;;;-128.00;-1.00;-1.00;100252;1299;1003338;-31
2022/06/01 05:35:46;;;;;;;0.70;0.40;;;;;;;-128.00;-1.00;-1.00;100208;1299;1003159;-25
2022/06/01 05:38:15;;;;;;;2.60;1.80;;;;;;;-128.00;-1.00;-1.00;100187;1299;1004558;-25
2022/06/01 05:40:44;;;;;;;1.10;0.40;;;;;;;-128.00;-1.00;-1.00;99972;1299;1003073;-29
2022/06/01 05:43:14;;;;;;;0.30;0.30;;;;;;;-128.00;-1.00;-1.00;100169;1299;1004468;-30
2022/06/01 05:45:43;;;;;;;0.90;0.40;;;;;;;-128.00;-1.00;-1.00;100168;1299;1003114;-25
2022/06/01 05:48:13;;;;;;;0.70;0.40;;;;;;;-128.00;-1.00;-1.00;100269;1299;1004366;-25
2022/06/01 05:50:42;;;;;;;2.10;0.60;;;;;;;-128.00;-1.00;-1.00;100226;1299;1003118;-25
2022/06/01 05:53:11;;;;;;;1.70;0.60;;;;;;;-128.00;-1.00;-1.00;100149;1299;1003603;-29
2022/06/01 05:55:40;;;;;;;2.10;0.40;;;;;;;-128.00;-1.00;-1.00;100176;1299;1003982;-25
2022/06/01 05:58:19;;;;;;;1.20;0.30;;;;;;;-128.00;-1.00;-1.00;100155;1299;1003866;-24
2022/06/01 06:00:49;;;;;;;2.10;0.40;;;;;;;-128.00;-1.00;-1.00;100174;1299;1004230;-29
2022/06/01 06:03:19;;;;;;;0.90;0.30;;;;;;;-128.00;-1.00;-1.00;100214;1299;1004435;-29
2022/06/01 06:08:21;;;;;;;0.60;0.50;;;;;;;-128.00;-1.00;-1.00;100214;1299;1003142;-25
2022/06/01 06:10:50;;;;;;;0.90;0.50;;;;;;;-128.00;-1.00;-1.00;100107;1299;1003078;-25
2022/06/01 06:13:19;;;;;;;1.10;0.50;;;;;;;-128.00;-1.00;-1.00;100185;1299;1004101;-25
2022/06/01 06:15:48;;;;;;;1.40;0.60;;;;;;;-128.00;-1.00;-1.00;100211;1299;1004267;-29
2022/06/01 06:18:17;;;;;;;22.30;3.10;;;;;;;-128.00;-1.00;-1.00;100156;1299;1004106;-29
2022/06/01 06:20:46;;;;;;;0.90;0.40;;;;;;;-128.00;-1.00;-1.00;100157;1299;1004242;-25
2022/06/01 06:23:16;;;;;;;0.70;0.40;;;;;;;-128.00;-1.00;-1.00;100161;1299;1003234;-30
2022/06/01 06:25:44;;;;;;;0.70;0.40;;;;;;;-128.00;-1.00;-1.00;100211;1299;1004657;-29
2022/06/01 06:28:14;;;;;;;1.10;0.60;;;;;;;-128.00;-1.00;-1.00;100191;1299;1004058;-26
2022/06/01 06:30:43;;;;;;;0.40;0.30;;;;;;;-128.00;-1.00;-1.00;100157;1299;1004294;-25
2022/06/01 06:33:12;;;;;;;1.80;0.70;;;;;;;-128.00;-1.00;-1.00;100153;1299;1003720;-29
2022/06/01 06:35:41;;;;;;;0.40;0.30;;;;;;;-128.00;-1.00;-1.00;100206;1299;1004218;-29
2022/06/01 06:38:10;;;;;;;0.40;0.40;;;;;;;-128.00;-1.00;-1.00;100246;1299;1004399;-25
2022/06/01 06:40:39;;;;;;;1.10;0.30;;;;;;;-128.00;-1.00;-1.00;100105;1299;1005232;-24
2022/06/01 06:43:08;;;;;;;0.40;0.30;;;;;;;-128.00;-1.00;-1.00;100171;1296;1003758;-25
2022/06/01 06:45:37;;;;;;;1.20;0.30;;;;;;;-128.00;-1.00;-1.00;100142;1299;1003976;-29
2022/06/01 06:48:07;;;;;;;0.70;0.40;;;;;;;-128.00;-1.00;-1.00;100179;1299;1003751;-29
2022/06/01 06:50:35;;;;;;;0.80;0.40;;;;;;;-128.00;-1.00;-1.00;100140;1299;1003945;-25
2022/06/01 06:53:05;;;;;;;1.00;0.50;;;;;;;-128.00;-1.00;-1.00;100208;1299;1004592;-24
2022/06/01 06:55:34;;;;;;;0.70;0.40;;;;;;;-128.00;-1.00;-1.00;100236;1299;1003949;-28
2022/06/01 06:58:03;;;;;;;0.60;0.40;;;;;;;-128.00;-1.00;-1.00;100173;1299;1003484;-29
2022/06/01 07:00:32;;;;;;;1.50;0.40;;;;;;;-128.00;-1.00;-1.00;99931;1299;1004587;-24
2022/06/01 07:03:01;;;;;;;1.00;0.50;;;;;;;-128.00;-1.00;-1.00;100001;1303;1003406;-27
2022/06/01 07:08:05;;;;;;;0.40;0.40;;;;;;;-128.00;-1.00;-1.00;100096;1299;1004604;-27
2022/06/01 07:10:34;;;;;;;0.70;0.40;;;;;;;-128.00;-1.00;-1.00;100207;1299;1003648;-26
2022/06/01 07:13:03;;;;;;;1.40;0.50;;;;;;;-128.00;-1.00;-1.00;100021;1299;1003891;-27
2022/06/01 07:15:32;;;;;;;2.00;0.40;;;;;;;-128.00;-1.00;-1.00;100197;1299;1003566;-26
2022/06/01 07:18:02;;;;;;;0.30;0.20;;;;;;;-128.00;-1.00;-1.00;100276;1298;1003755;-30
2022/06/01 07:20:31;;;;;;;0.70;0.60;;;;;;;-128.00;-1.00;-1.00;100156;1299;1003067;-26
2022/06/01 07:23:00;;;;;;;1.90;0.50;;;;;;;-128.00;-1.00;-1.00;100183;1299;1003906;-26
2022/06/01 07:25:29;;;;;;;2.50;0.30;;;;;;;-128.00;-1.00;-1.00;100121;1299;1004209;-28
2022/06/01 07:27:58;;;;;;;0.60;0.40;;;;;;;-128.00;-1.00;-1.00;100242;1299;1004200;-24
2022/06/01 07:30:28;;;;;;;4.80;0.30;;;;;;;-128.00;-1.00;-1.00;100169;1299;1003544;-28
2022/06/01 07:32:57;;;;;;;2.30;0.70;;;;;;;-128.00;-1.00;-1.00;100256;1299;1003438;-30
2022/06/01 07:35:26;;;;;;;2.80;1.00;;;;;;;-128.00;-1.00;-1.00;100190;1299;1005075;-26
2022/06/01 07:45:34;;;;;;;0.40;0.40;;;;;;;-128.00;-1.00;-1.00;100161;1299;1003859;-28
2022/06/01 07:48:05;;;;;;;0.90;0.70;;;;;;;-128.00;-1.00;-1.00;100152;1299;1004314;-24
2022/06/01 07:50:34;;;;;;;1.90;0.30;;;;;;;-128.00;-1.00;-1.00;100128;1299;1003846;-24
2022/06/01 07:53:05;;;;;;;0.60;0.60;;;;;;;-128.00;-1.00;-1.00;100141;1299;1003702;-27
2022/06/01 07:55:34;;;;;;;0.50;0.40;;;;;;;-128.00;-1.00;-1.00;100115;1299;1003002;-28
2022/06/01 07:58:04;;;;;;;1.10;0.60;;;;;;;-128.00;-1.00;-1.00;100148;1298;1003644;-24
2022/06/01 08:00:33;;;;;;;2.90;0.60;;;;;;;-128.00;-1.00;-1.00;100158;1299;1003460;-30
2022/06/01 08:03:02;;;;;;;2.60;0.70;;;;;;;-128.00;-1.00;-1.00;100145;1299;1004218;-24
2022/06/01 08:05:31;;;;;;;2.20;0.70;;;;;;;-128.00;-1.00;-1.00;99940;1299;1002779;-26
2022/06/01 08:08:00;;;;;;;0.80;0.60;;;;;;;-128.00;-1.00;-1.00;100165;1298;1003300;-28
2022/06/01 08:10:29;;;;;;;2.20;0.70;;;;;;;-128.00;-1.00;-1.00;100099;1299;1003753;-30
2022/06/01 08:15:30;;;;;;;0.30;0.20;;;;;;;-128.00;-1.00;-1.00;100197;1299;1004553;-28
2022/06/01 08:17:59;;;;;;;3.50;0.30;;;;;;;-128.00;-1.00;-1.00;100176;1299;1003636;-26
2022/06/01 08:20:29;;;;;;;2.90;0.70;;;;;;;-128.00;-1.00;-1.00;100192;1299;1003624;-30
2022/06/01 08:22:58;;;;;;;0.80;0.40;;;;;;;-128.00;-1.00;-1.00;100154;1299;1004271;-26
2022/06/01 08:25:28;;;;;;;0.90;0.30;;;;;;;-128.00;-1.00;-1.00;100144;1299;1003214;-30
2022/06/01 08:27:57;;;;;;;1.00;0.50;;;;;;;-128.00;-1.00;-1.00;100198;1299;1002810;-30
2022/06/01 08:30:27;;;;;;;0.80;0.70;;;;;;;-128.00;-1.00;-1.00;100167;1299;1003597;-30
2022/06/01 08:32:57;;;;;;;0.70;0.40;;;;;;;-128.00;-1.00;-1.00;100014;1302;1003358;-26
2022/06/01 08:35:30;;;;;;;2.50;1.20;;;;;;;-128.00;-1.00;-1.00;100164;1299;1003810;-24
2022/06/01 08:37:59;;;;;;;1.40;0.50;;;;;;;-128.00;-1.00;-1.00;100203;1299;1003621;-24
2022/06/01 08:40:31;;;;;;;0.60;0.40;;;;;;;-128.00;-1.00;-1.00;100202;1299;1004318;-25
2022/06/01 08:43:05;;;;;;;1.10;0.80;;;;;;;-128.00;-1.00;-1.00;100100;1299;1003574;-26
2022/06/01 08:45:34;;;;;;;0.70;0.50;;;;;;;-128.00;-1.00;-1.00;100126;1299;1004116;-25
2022/06/01 08:48:04;;;;;;;1.50;0.70;;;;;;;-128.00;-1.00;-1.00;100117;1299;1004674;-25
2022/06/01 08:50:36;;;;;;;14.50;0.60;;;;;;;-128.00;-1.00;-1.00;100149;1299;1003612;-28
2022/06/01 08:53:07;;;;;;;0.70;0.50;;;;;;;-128.00;-1.00;-1.00;100161;1299;1003534;-25
2022/06/01 08:55:42;;;;;;;1.90;0.60;;;;;;;-128.00;-1.00;-1.00;100162;1299;1003907;-24
2022/06/01 08:58:16;;;;;;;0.90;0.40;;;;;;;-128.00;-1.00;-1.00;100156;1299;1003808;-33
2022/06/01 09:00:51;;;;;;;1.00;0.40;;;;;;;-128.00;-1.00;-1.00;100151;1299;1003354;-28
2022/06/01 09:03:30;;;;;;;0.30;0.30;;;;;;;-128.00;-1.00;-1.00;100207;1299;1003871;-28
2022/06/01 09:06:05;;;;;;;0.40;0.40;;;;;;;-128.00;-1.00;-1.00;100124;1299;1004249;-24
2022/06/01 09:08:37;;;;;;;0.90;0.60;;;;;;;-128.00;-1.00;-1.00;100164;1299;1003160;-28
2022/06/01 09:11:07;;;;;;;1.80;0.50;;;;;;;-128.00;-1.00;-1.00;100186;1298;1003616;-28
2022/06/01 09:13:41;;;;;;;3.20;0.40;;;;;;;-128.00;-1.00;-1.00;100023;1299;1003532;-28
2022/06/01 09:16:12;;;;;;;0.70;0.40;;;;;;;-128.00;-1.00;-1.00;100144;1299;1003427;-28
2022/06/01 09:18:44;;;;;;;1.70;0.70;;;;;;;-128.00;-1.00;-1.00;100149;1299;1003872;-24
2022/06/01 09:23:53;;;;;;;0.30;0.30;;;;;;;-128.00;-1.00;-1.00;100166;1299;1004375;-24
2022/06/01 09:26:25;;;;;;;3.30;0.30;;;;;;;-128.00;-1.00;-1.00;100100;1299;1004517;-28
2022/06/01 09:28:56;;;;;;;1.40;0.40;;;;;;;-128.00;-1.00;-1.00;100151;1299;1003286;-29
2022/06/01 09:31:32;;;;;;;0.60;0.50;;;;;;;-128.00;-1.00;-1.00;100115;1299;1003366;-24
2022/06/01 09:34:08;;;;;;;0.70;0.20;;;;;;;-128.00;-1.00;-1.00;100012;1299;1003997;-22
2022/06/01 09:36:37;;;;;;;0.50;0.50;;;;;;;-128.00;-1.00;-1.00;100211;1298;1003253;-24
2022/06/01 09:39:16;;;;;;;2.20;0.40;;;;;;;-128.00;-1.00;-1.00;100192;1299;1003972;-24
2022/06/01 09:41:46;;;;;;;1.20;0.80;;;;;;;-128.00;-1.00;-1.00;100153;1299;1004054;-28
2022/06/01 09:44:18;;;;;;;1.30;0.60;;;;;;;-128.00;-1.00;-1.00;100149;1299;1003117;-24
2022/06/01 09:46:47;;;;;;;0.50;0.40;;;;;;;-128.00;-1.00;-1.00;100191;1299;1002959;-28
2022/06/01 09:49:21;;;;;;;3.30;0.70;;;;;;;-128.00;-1.00;-1.00;100225;1299;1003988;-24
2022/06/01 09:51:55;;;;;;;0.60;0.40;;;;;;;-128.00;-1.00;-1.00;100159;1299;1003695;-27
2022/06/01 09:54:27;;;;;;;2.50;0.50;;;;;;;-128.00;-1.00;-1.00;100158;1299;1003830;-24
2022/06/01 09:56:56;;;;;;;0.90;0.70;;;;;;;-128.00;-1.00;-1.00;100154;1299;1004438;-28
2022/06/01 10:07:20;;;;;;;0.80;0.60;;;;;;;-128.00;-1.00;-1.00;100182;1299;1003806;-28
2022/06/01 10:09:51;;;;;;;1.40;0.80;;;;;;;-128.00;-1.00;-1.00;100079;1299;1003776;-28
2022/06/01 10:12:24;;;;;;;1.20;0.60;;;;;;;-128.00;-1.00;-1.00;100148;1299;1003457;-24
2022/06/01 10:14:53;;;;;;;0.70;0.40;;;;;;;-128.00;-1.00;-1.00;100164;1299;1004032;-24
2022/06/01 10:17:28;;;;;;;0.60;0.50;;;;;;;-128.00;-1.00;-1.00;100263;1299;1003792;-28
2022/06/01 10:20:15;;;;;;;1.10;0.70;;;;;;;-128.00;-1.00;-1.00;100126;1299;1004601;-28
2022/06/01 10:22:48;;;;;;;1.10;0.60;;;;;;;-128.00;-1.00;-1.00;100190;1299;1003465;-24
2022/06/01 10:25:19;;;;;;;0.60;0.50;;;;;;;-128.00;-1.00;-1.00;100229;1299;1003634;-24
2022/06/01 10:27:52;;;;;;;1.30;0.60;;;;;;;-128.00;-1.00;-1.00;100127;1299;1003279;-24
2022/06/01 10:30:26;;;;;;;3.00;0.70;;;;;;;-128.00;-1.00;-1.00;100081;1299;1002951;-28
2022/06/01 10:33:00;;;;;;;1.80;1.00;;;;;;;-128.00;-1.00;-1.00;100167;1299;1003517;-25
2022/06/01 10:35:38;;;;;;;0.40;0.40;;;;;;;-128.00;-1.00;-1.00;100129;1299;1003613;-29
2022/06/01 10:38:14;;;;;;;0.40;0.30;;;;;;;-128.00;-1.00;-1.00;100144;1299;1003989;-28
2022/06/01 10:40:51;;;;;;;1.70;0.80;;;;;;;-128.00;-1.00;-1.00;100145;1299;1004394;-24
2022/06/01 10:43:28;;;;;;;0.70;0.50;;;;;;;-128.00;-1.00;-1.00;100212;1299;1004057;-26
2022/06/01 10:46:00;;;;;;;0.70;0.60;;;;;;;-128.00;-1.00;-1.00;100114;1299;1003213;-23
2022/06/01 10:48:33;;;;;;;1.40;0.70;;;;;;;-128.00;-1.00;-1.00;100088;1299;1003634;-24
2022/06/01 10:51:06;;;;;;;0.90;0.70;;;;;;;-128.00;-1.00;-1.00;100154;1299;1003737;-23
2022/06/01 10:53:42;;;;;;;1.90;0.80;;;;;;;-128.00;-1.00;-1.00;100180;1299;1004187;-24
2022/06/01 10:56:12;;;;;;;1.20;0.50;;;;;;;-128.00;-1.00;-1.00;100108;1299;1003300;-28
2022/06/01 10:58:41;;;;;;;1.30;0.60;;;;;;;-128.00;-1.00;-1.00;100173;1299;1003416;-25
2022/06/01 11:01:16;;;;;;;5.60;0.80;;;;;;;-128.00;-1.00;-1.00;100192;1299;1004229;-24
2022/06/01 11:03:48;;;;;;;1.20;0.70;;;;;;;-128.00;-1.00;-1.00;100142;1299;1004658;-28
2022/06/01 11:06:26;;;;;;;0.70;0.50;;;;;;;-128.00;-1.00;-1.00;100206;1297;1003915;-28
2022/06/01 11:09:01;;;;;;;1.60;0.60;;;;;;;-128.00;-1.00;-1.00;100099;1299;1003297;-28
2022/06/01 11:11:37;;;;;;;0.80;0.80;;;;;;;-128.00;-1.00;-1.00;100166;1299;1003769;-28
2022/06/01 11:14:13;;;;;;;11.80;0.60;;;;;;;-128.00;-1.00;-1.00;100123;1299;1003888;-24
2022/06/01 11:17:03;;;;;;;1.60;0.60;;;;;;;-128.00;-1.00;-1.00;100169;1299;1003977;-25
2022/06/01 11:19:33;;;;;;;0.80;0.50;;;;;;;-128.00;-1.00;-1.00;100154;1298;1003848;-29
2022/06/01 11:22:03;;;;;;;0.90;0.70;;;;;;;-128.00;-1.00;-1.00;100184;1299;1004103;-25
2022/06/01 11:24:39;;;;;;;2.50;0.60;;;;;;;-128.00;-1.00;-1.00;100144;1299;1004010;-28
2022/06/01 11:27:23;;;;;;;1.00;0.60;;;;;;;-128.00;-1.00;-1.00;100123;1299;1004001;-24
2022/06/01 11:30:09;;;;;;;5.70;0.80;;;;;;;-128.00;-1.00;-1.00;100091;1299;1004259;-30
2022/06/01 11:32:39;;;;;;;2.10;0.90;;;;;;;-128.00;-1.00;-1.00;100113;1299;1004063;-29
2022/06/01 11:35:17;;;;;;;7.80;1.20;;;;;;;-128.00;-1.00;-1.00;100175;1299;1003679;-23
2022/06/01 11:37:49;;;;;;;1.30;0.80;;;;;;;-128.00;-1.00;-1.00;100127;1299;1003746;-31
2022/06/01 11:40:26;;;;;;;2.30;0.90;;;;;;;-128.00;-1.00;-1.00;100145;1299;1003293;-24
2022/06/01 11:42:58;;;;;;;0.30;0.30;;;;;;;-128.00;-1.00;-1.00;100155;1299;1003042;-28
2022/06/01 11:45:32;;;;;;;0.60;0.50;;;;;;;-128.00;-1.00;-1.00;100245;1299;1003226;-25
2022/06/01 11:48:03;;;;;;;1.70;0.90;;;;;;;-128.00;-1.00;-1.00;100125;1299;1004199;-24
2022/06/01 11:50:54;;;;;;;2.40;0.90;;;;;;;-128.00;-1.00;-1.00;100212;1299;1004373;-30
2022/06/01 11:53:30;;;;;;;2.70;1.40;;;;;;;-128.00;-1.00;-1.00;100147;1299;1004488;-30
2022/06/01 11:56:06;;;;;;;1.20;0.60;;;;;;;-128.00;-1.00;-1.00;100142;1299;1003235;-25
2022/06/01 11:58:40;;;;;;;3.00;0.80;;;;;;;-128.00;-1.00;-1.00;100158;1299;1003684;-25
2022/06/01 12:01:14;;;;;;;10.40;0.60;;;;;;;-128.00;-1.00;-1.00;100169;1299;1003182;-31
2022/06/01 12:03:47;;;;;;;2.50;0.80;;;;;;;-128.00;-1.00;-1.00;100000;1299;1003683;-30
2022/06/01 12:06:37;;;;;;;8.10;0.80;;;;;;;-128.00;-1.00;-1.00;100169;1299;1003252;-30
2022/06/01 12:09:14;;;;;;;1.10;0.50;;;;;;;-128.00;-1.00;-1.00;100174;1299;1003925;-30
2022/06/01 12:11:46;;;;;;;0.90;0.50;;;;;;;-128.00;-1.00;-1.00;100154;1298;1003785;-30